createdAt,value
2022-11-27T00:01:11.838Z,19.50
2022-11-27T00:03:58.812Z,15.68
2022-11-27T00:06:44.973Z,16.05
2022-11-27T00:09:30.811Z,15.43
2022-11-27T00:12:49.576Z,13.52
2022-11-27T00:15:57.051Z,16.17
2022-11-27T00:18:43.503Z,16.02
2022-11-27T00:21:31.778Z,12.10
2022-11-27T00:24:17.456Z,17.15
2022-11-27T00:27:03.660Z,18.73
2022-11-27T00:29:55.070Z,16.08
2022-11-27T00:32:40.784Z,13.82
2022-11-27T00:35:26.460Z,21.38
2022-11-27T00:38:12.221Z,13.82
2022-11-27T00:41:26.021Z,15.95
2022-11-27T00:44:13.589Z,13.52
2022-11-27T00:46:59.287Z,15.85
2022-11-27T00:49:46.744Z,28.65
2022-11-27T00:52:33.180Z,15.63
2022-11-27T00:55:18.936Z,17.27
2022-11-27T00:58:04.785Z,16.70
2022-11-27T01:01:02.349Z,15.93
2022-11-27T01:03:48.889Z,16.17
2022-11-27T01:06:35.117Z,14.70
2022-11-27T01:09:21.085Z,14.55
2022-11-27T01:12:07.656Z,16.75
2022-11-27T01:14:53.537Z,15.23
2022-11-27T01:17:39.257Z,15.60
2022-11-27T01:20:24.935Z,15.07
2022-11-27T01:23:10.636Z,14.48
2022-11-27T01:25:56.611Z,16.05
2022-11-27T01:28:42.594Z,20.02
2022-11-27T01:31:30.638Z,15.95
2022-11-27T01:34:18.148Z,15.27
2022-11-27T01:37:03.913Z,20.33
2022-11-27T01:39:49.581Z,21.20
2022-11-27T01:42:35.395Z,18.27
2022-11-27T01:45:22.647Z,17.85
2022-11-27T01:48:09.484Z,18.00
2022-11-27T01:50:55.485Z,20.17
2022-11-27T01:53:41.491Z,17.60
2022-11-27T01:56:28.457Z,17.13
2022-11-27T01:59:14.915Z,18.48
2022-11-27T02:02:02.095Z,15.70
2022-11-27T02:04:51.021Z,15.05
2022-11-27T02:07:37.358Z,17.73
2022-11-27T02:10:44.931Z,19.15
2022-11-27T02:13:32.460Z,19.50
2022-11-27T02:16:34.065Z,17.73
2022-11-27T02:20:01.585Z,14.68
2022-11-27T02:23:16.557Z,17.55
2022-11-27T02:26:30.200Z,17.88
2022-11-27T02:29:21.625Z,10.73
2022-11-27T02:32:14.290Z,23.27
2022-11-27T02:35:06.921Z,45.03
2022-11-27T02:38:00.450Z,43.72
2022-11-27T02:40:55.060Z,45.92
2022-11-27T02:43:46.689Z,41.63
2022-11-27T02:46:33.192Z,43.60
2022-11-27T02:49:19.494Z,49.60
2022-11-27T02:52:06.148Z,58.50
2022-11-27T02:54:55.125Z,52.65
2022-11-27T02:57:42.146Z,50.00
2022-11-27T03:00:29.895Z,51.05
2022-11-27T03:03:21.387Z,43.03
2022-11-27T03:06:12.094Z,47.95
2022-11-27T03:09:08.302Z,45.70
2022-11-27T03:11:54.910Z,49.70
2022-11-27T03:14:42.878Z,43.53
2022-11-27T03:17:31.704Z,40.22
2022-11-27T03:20:23.545Z,46.78
2022-11-27T03:23:09.330Z,45.20
2022-11-27T03:26:03.034Z,41.03
2022-11-27T03:31:36.062Z,44.95
2022-11-27T03:34:21.984Z,43.53
2022-11-27T03:37:08.305Z,42.13
2022-11-27T03:39:55.120Z,44.95
2022-11-27T03:43:12.638Z,44.83
2022-11-27T03:46:10.157Z,41.60
2022-11-27T03:49:44.801Z,40.30
2022-11-27T03:52:44.194Z,47.58
2022-11-27T03:55:51.575Z,42.90
2022-11-27T03:58:49.130Z,46.63
2022-11-27T04:01:35.116Z,45.47
2022-11-27T04:04:21.149Z,46.10
2022-11-27T04:07:07.274Z,44.65
2022-11-27T04:09:53.489Z,45.67
2022-11-27T04:12:39.214Z,43.97
2022-11-27T04:15:25.277Z,41.55
2022-11-27T04:18:11.139Z,46.65
2022-11-27T04:21:03.787Z,41.83
2022-11-27T04:24:01.075Z,47.20
2022-11-27T04:26:47.617Z,44.80
2022-11-27T04:29:33.580Z,43.28
2022-11-27T04:32:20.968Z,47.03
2022-11-27T04:35:07.206Z,46.00
2022-11-27T04:37:52.845Z,46.35
2022-11-27T04:40:38.708Z,38.08
2022-11-27T04:43:24.475Z,44.05
2022-11-27T04:46:10.316Z,47.75
2022-11-27T04:48:56.256Z,46.70
2022-11-27T04:51:41.929Z,47.42
2022-11-27T04:54:27.654Z,42.63
2022-11-27T04:57:13.332Z,48.88
2022-11-27T04:59:59.201Z,50.45
2022-11-27T05:02:45.086Z,50.65
2022-11-27T05:05:30.875Z,63.85
2022-11-27T05:08:16.484Z,47.58
2022-11-27T05:11:08.342Z,48.03
2022-11-27T05:14:14.391Z,48.53
2022-11-27T05:17:00.254Z,47.40
2022-11-27T05:19:46.375Z,42.30
2022-11-27T05:22:32.433Z,41.03
2022-11-27T05:25:18.355Z,45.97
2022-11-27T05:28:04.244Z,46.83
2022-11-27T05:30:50.332Z,41.30
2022-11-27T05:33:36.377Z,40.60
2022-11-27T05:36:22.118Z,41.75
2022-11-27T05:39:08.714Z,40.75
2022-11-27T05:41:54.493Z,39.90
2022-11-27T05:44:40.510Z,40.80
2022-11-27T05:47:26.449Z,43.45
2022-11-27T05:50:12.322Z,42.80
2022-11-27T05:52:58.253Z,46.13
2022-11-27T05:55:43.925Z,42.15
2022-11-27T05:58:33.079Z,42.65
2022-11-27T06:01:19.790Z,40.92
2022-11-27T06:04:05.880Z,48.33
2022-11-27T06:06:51.815Z,47.63
2022-11-27T06:09:38.603Z,45.17
2022-11-27T06:12:24.590Z,49.67
2022-11-27T06:15:10.648Z,43.92
2022-11-27T06:17:56.628Z,43.13
2022-11-27T06:20:44.658Z,43.40
2022-11-27T06:23:34.054Z,44.75
2022-11-27T06:26:23.138Z,44.97
2022-11-27T06:29:16.150Z,41.90
2022-11-27T06:32:02.148Z,46.50
2022-11-27T06:34:48.249Z,49.97
2022-11-27T06:37:34.171Z,53.08
2022-11-27T06:40:20.128Z,68.43
2022-11-27T06:43:05.848Z,58.55
2022-11-27T06:45:56.749Z,92.57
2022-11-27T06:48:44.136Z,55.97
2022-11-27T06:51:31.434Z,49.35
2022-11-27T06:54:17.663Z,48.13
2022-11-27T06:57:04.567Z,54.35
2022-11-27T06:59:50.283Z,52.20
2022-11-27T07:02:36.402Z,53.55
2022-11-27T07:05:22.147Z,55.78
2022-11-27T07:08:08.187Z,52.35
2022-11-27T07:10:54.262Z,50.40
2022-11-27T07:13:40.857Z,59.15
2022-11-27T07:16:28.763Z,55.03
2022-11-27T07:19:14.859Z,49.70
2022-11-27T07:22:00.717Z,54.45
2022-11-27T07:24:46.665Z,53.42
2022-11-27T07:27:32.297Z,56.53
2022-11-27T07:30:18.150Z,54.33
2022-11-27T07:33:04.282Z,59.83
2022-11-27T07:35:50.309Z,58.80
2022-11-27T07:38:36.274Z,46.65
2022-11-27T07:41:22.348Z,56.72
2022-11-27T07:44:09.094Z,68.80
2022-11-27T07:46:55.076Z,53.60
2022-11-27T07:49:41.062Z,58.40
2022-11-27T07:52:27.381Z,53.95
2022-11-27T07:55:13.723Z,53.03
2022-11-27T07:57:59.775Z,47.25
2022-11-27T08:00:45.433Z,47.60
2022-11-27T08:03:31.124Z,54.25
2022-11-27T08:06:25.702Z,56.70
2022-11-27T08:09:11.579Z,49.95
2022-11-27T08:11:57.414Z,45.50
2022-11-27T08:14:43.260Z,50.88
2022-11-27T08:17:28.864Z,59.15
2022-11-27T08:20:14.691Z,51.35
2022-11-27T08:23:03.011Z,49.95
2022-11-27T08:25:49.117Z,55.25
2022-11-27T08:28:35.228Z,60.50
2022-11-27T08:31:21.915Z,54.67
2022-11-27T08:34:07.988Z,93.65
2022-11-27T08:36:53.905Z,56.42
2022-11-27T08:39:39.838Z,53.42
2022-11-27T08:42:25.696Z,60.03
2022-11-27T08:45:11.678Z,56.90
2022-11-27T08:47:58.160Z,55.22
2022-11-27T08:50:44.374Z,51.05
2022-11-27T08:53:31.506Z,61.08
2022-11-27T08:56:22.914Z,65.53
2022-11-27T08:59:09.230Z,49.15
2022-11-27T09:01:55.266Z,55.05
2022-11-27T09:04:41.513Z,49.90
2022-11-27T09:07:27.511Z,52.53
2022-11-27T09:10:13.691Z,44.17
2022-11-27T09:13:00.720Z,43.97
2022-11-27T09:15:46.493Z,43.60
2022-11-27T09:18:33.017Z,62.92
2022-11-27T09:21:20.792Z,51.70
2022-11-27T09:24:07.044Z,53.75
2022-11-27T09:26:52.812Z,54.55
2022-11-27T09:29:38.656Z,50.47
2022-11-27T09:32:24.488Z,51.67
2022-11-27T09:35:10.345Z,41.45
2022-11-27T09:37:56.322Z,40.05
2022-11-27T09:40:50.525Z,39.65
2022-11-27T09:43:42.308Z,44.00
2022-11-27T09:46:37.411Z,66.65
2022-11-27T09:49:29.636Z,48.72
2022-11-27T09:52:26.768Z,64.65
2022-11-27T09:55:22.816Z,51.13
2022-11-27T09:58:36.928Z,71.25
2022-11-27T10:01:38.532Z,43.05
2022-11-27T10:04:50.961Z,38.47
2022-11-27T10:08:03.318Z,35.85
2022-11-27T10:11:13.085Z,30.48
2022-11-27T10:14:17.539Z,29.05
2022-11-27T10:17:10.011Z,33.25
2022-11-27T10:20:03.979Z,30.35
2022-11-27T10:23:03.455Z,45.70
2022-11-27T10:25:51.941Z,33.55
2022-11-27T10:29:00.748Z,35.47
2022-11-27T10:31:50.753Z,29.13
2022-11-27T10:34:43.652Z,35.05
2022-11-27T10:37:41.808Z,34.42
2022-11-27T10:40:34.400Z,39.03
2022-11-27T10:43:23.386Z,33.08
2022-11-27T10:46:20.584Z,30.40
2022-11-27T10:49:06.555Z,34.80
2022-11-27T10:51:52.263Z,39.22
2022-11-27T10:54:39.550Z,41.22
2022-11-27T10:58:03.409Z,38.03
2022-11-27T11:01:02.759Z,39.65
2022-11-27T11:03:48.805Z,32.53
2022-11-27T11:06:40.785Z,31.52
2022-11-27T11:09:34.597Z,38.15
2022-11-27T11:12:22.678Z,33.97
2022-11-27T11:15:11.534Z,32.38
2022-11-27T11:17:57.147Z,31.50
2022-11-27T11:20:47.824Z,33.00
2022-11-27T11:23:36.238Z,32.58
2022-11-27T11:26:22.109Z,38.42
2022-11-27T11:29:24.517Z,41.40
2022-11-27T11:32:33.829Z,36.72
2022-11-27T11:35:32.239Z,34.88
2022-11-27T11:38:19.104Z,34.92
2022-11-27T11:41:07.244Z,35.38
2022-11-27T11:44:01.427Z,42.83
2022-11-27T11:49:37.304Z,42.75
2022-11-27T11:52:50.685Z,36.20
2022-11-27T11:55:59.222Z,41.45
2022-11-27T11:59:19.384Z,42.83
2022-11-27T12:02:20.646Z,38.75
2022-11-27T12:05:32.485Z,38.55
2022-11-27T12:08:29.671Z,49.35
2022-11-27T12:11:20.478Z,42.97
2022-11-27T12:14:15.438Z,41.78
2022-11-27T12:17:32.482Z,41.72
2022-11-27T12:20:22.606Z,45.53
2022-11-27T12:23:28.258Z,41.25
2022-11-27T12:26:48.824Z,39.80
2022-11-27T12:29:51.552Z,49.33
2022-11-27T12:33:05.443Z,33.10
2022-11-27T12:35:51.244Z,36.97
2022-11-27T12:38:52.987Z,31.92
2022-11-27T12:41:51.985Z,38.47
2022-11-27T12:45:02.764Z,39.88
2022-11-27T12:48:06.124Z,30.35
2022-11-27T12:50:55.248Z,29.97
2022-11-27T12:53:42.812Z,35.33
2022-11-27T12:56:31.573Z,36.80
2022-11-27T12:59:27.724Z,31.55
2022-11-27T13:02:34.779Z,40.30
2022-11-27T13:05:24.923Z,34.47
2022-11-27T13:08:21.538Z,37.58
2022-11-27T13:11:10.964Z,35.85
2022-11-27T13:14:19.938Z,40.70
2022-11-27T13:17:10.473Z,38.58
2022-11-27T13:19:56.739Z,40.08
2022-11-27T13:22:43.322Z,45.08
2022-11-27T13:25:31.119Z,54.03
2022-11-27T13:28:41.889Z,48.33
2022-11-27T13:31:32.395Z,50.63
2022-11-27T13:34:21.802Z,46.08
2022-11-27T13:37:08.724Z,71.40
2022-11-27T13:40:05.585Z,48.97
2022-11-27T13:42:55.945Z,52.63
2022-11-27T13:45:42.133Z,51.40
2022-11-27T13:48:38.389Z,49.75
2022-11-27T13:51:29.410Z,46.05
2022-11-27T13:54:21.329Z,41.72
2022-11-27T13:57:21.238Z,49.50
2022-11-27T14:00:10.734Z,45.38
2022-11-27T14:03:01.186Z,52.72
2022-11-27T14:05:47.144Z,51.22
2022-11-27T14:08:34.989Z,51.55
2022-11-27T14:11:38.295Z,37.03
2022-11-27T14:14:25.803Z,72.63
2022-11-27T14:17:26.350Z,38.63
2022-11-27T14:20:18.540Z,54.78
2022-11-27T14:23:11.683Z,41.47
2022-11-27T14:26:15.230Z,54.25
2022-11-27T14:29:01.473Z,36.70
2022-11-27T14:31:57.708Z,22.20
2022-11-27T14:34:44.281Z,14.45
2022-11-27T14:37:30.481Z,15.68
2022-11-27T14:40:26.511Z,18.20
2022-11-27T14:43:18.615Z,18.73
2022-11-27T14:46:05.853Z,33.33
2022-11-27T14:48:56.523Z,10.27
2022-11-27T14:51:43.695Z,9.73
2022-11-27T14:54:33.175Z,9.30
2022-11-27T14:57:27.452Z,9.40
2022-11-27T15:00:16.998Z,12.48
2022-11-27T15:03:10.798Z,16.33
2022-11-27T15:06:16.244Z,43.38
2022-11-27T15:09:30.114Z,12.75
2022-11-27T15:12:22.329Z,17.58
2022-11-27T15:15:15.836Z,12.27
2022-11-27T15:18:06.824Z,16.98
2022-11-27T15:20:52.854Z,16.02
2022-11-27T15:23:45.451Z,14.57
2022-11-27T15:26:39.870Z,13.40
2022-11-27T15:29:38.264Z,9.70
2022-11-27T15:32:26.105Z,15.68
2022-11-27T15:35:16.097Z,15.82
2022-11-27T15:38:09.879Z,14.18
2022-11-27T15:41:00.893Z,17.23
2022-11-27T15:43:46.661Z,14.95
2022-11-27T15:46:34.777Z,12.25
2022-11-27T15:49:22.048Z,11.82
2022-11-27T15:52:07.857Z,15.30
2022-11-27T15:54:55.423Z,16.05
2022-11-27T15:57:41.513Z,17.65
2022-11-27T16:00:27.336Z,18.67
2022-11-27T16:03:14.286Z,20.48
2022-11-27T16:06:09.702Z,14.18
2022-11-27T16:08:59.138Z,18.75
2022-11-27T16:11:45.311Z,18.13
2022-11-27T16:14:31.450Z,11.95
2022-11-27T16:17:17.758Z,18.50
2022-11-27T16:20:04.382Z,14.00
2022-11-27T16:22:50.208Z,10.73
2022-11-27T16:25:38.870Z,12.38
2022-11-27T16:28:26.669Z,15.60
2022-11-27T16:31:15.022Z,21.17
2022-11-27T16:34:02.171Z,14.13
2022-11-27T16:36:49.591Z,18.50
2022-11-27T16:39:35.911Z,17.63
2022-11-27T16:42:22.147Z,18.80
2022-11-27T16:45:10.392Z,31.30
2022-11-27T16:47:57.275Z,23.50
2022-11-27T16:50:43.492Z,16.17
2022-11-27T16:53:30.864Z,16.40
2022-11-27T16:56:19.007Z,20.23
2022-11-27T16:59:10.410Z,15.07
2022-11-27T17:01:57.811Z,13.05
2022-11-27T17:04:44.608Z,17.70
2022-11-27T17:07:31.123Z,18.67
2022-11-27T17:10:17.225Z,17.30
2022-11-27T17:13:03.745Z,19.33
2022-11-27T17:15:50.438Z,32.05
2022-11-27T17:18:38.542Z,21.92
2022-11-27T17:21:28.909Z,35.05
2022-11-27T17:24:16.553Z,19.65
2022-11-27T17:27:03.732Z,16.67
2022-11-27T17:29:50.596Z,21.08
2022-11-27T17:32:37.467Z,16.15
2022-11-27T17:35:24.789Z,19.35
2022-11-27T17:38:11.468Z,12.85
2022-11-27T17:41:08.120Z,16.08
2022-11-27T17:43:54.897Z,21.02
2022-11-27T17:46:41.431Z,16.20
2022-11-27T17:49:28.121Z,15.07
2022-11-27T17:52:14.819Z,21.00
2022-11-27T17:55:02.334Z,19.00
2022-11-27T17:57:49.918Z,14.45
2022-11-27T18:00:38.278Z,16.20
2022-11-27T18:03:25.061Z,13.98
2022-11-27T18:06:12.196Z,14.23
2022-11-27T18:08:58.959Z,15.05
2022-11-27T18:11:45.001Z,16.80
2022-11-27T18:14:31.500Z,14.05
2022-11-27T18:17:19.432Z,12.23
2022-11-27T18:20:06.492Z,16.90
2022-11-27T18:22:52.721Z,13.43
2022-11-27T18:25:47.576Z,17.98
2022-11-27T18:28:38.143Z,15.10
2022-11-27T18:31:25.608Z,17.65
2022-11-27T18:34:12.090Z,14.80
2022-11-27T18:36:59.715Z,13.30
2022-11-27T18:39:47.140Z,11.57
2022-11-27T18:42:33.223Z,12.77
2022-11-27T18:45:32.306Z,14.10
2022-11-27T18:48:19.519Z,17.80
2022-11-27T18:51:09.039Z,14.88
2022-11-27T18:53:56.689Z,17.42
2022-11-27T18:56:43.534Z,16.27
2022-11-27T18:59:30.106Z,15.00
2022-11-27T19:02:16.637Z,13.30
2022-11-27T19:05:03.103Z,18.45
2022-11-27T19:07:49.737Z,17.02
2022-11-27T19:10:37.725Z,17.17
2022-11-27T19:13:24.067Z,14.10
2022-11-27T19:16:16.984Z,18.27
2022-11-27T19:19:05.511Z,33.08
2022-11-27T19:21:53.705Z,17.35
2022-11-27T19:24:40.071Z,14.45
2022-11-27T19:27:26.527Z,15.10
2022-11-27T19:30:13.648Z,14.10
2022-11-27T19:33:00.331Z,14.93
2022-11-27T19:35:46.990Z,15.98
2022-11-27T19:38:34.822Z,42.90
2022-11-27T19:41:21.907Z,52.47
2022-11-27T19:44:08.309Z,87.28
2022-11-27T19:46:54.996Z,58.97
2022-11-27T19:49:42.460Z,89.80
2022-11-27T19:52:28.910Z,25.90
2022-11-27T19:55:15.858Z,21.25
2022-11-27T19:58:02.935Z,19.50
2022-11-27T20:00:49.719Z,19.38
2022-11-27T20:03:36.057Z,18.80
2022-11-27T20:06:23.801Z,25.02
2022-11-27T20:09:10.898Z,15.90
2022-11-27T20:12:00.167Z,16.35
2022-11-27T20:14:46.928Z,18.92
2022-11-27T20:17:33.839Z,15.93
2022-11-27T20:20:21.550Z,14.52
2022-11-27T20:23:07.867Z,15.75
2022-11-27T20:25:54.084Z,15.15
2022-11-27T20:28:41.423Z,16.35
2022-11-27T20:31:32.274Z,15.15
2022-11-27T20:34:20.837Z,15.02
2022-11-27T20:37:06.936Z,18.80
2022-11-27T20:39:53.114Z,18.73
2022-11-27T20:42:39.475Z,15.73
2022-11-27T20:45:26.395Z,16.48
2022-11-27T20:48:12.656Z,16.83
2022-11-27T20:51:09.258Z,15.00
2022-11-27T20:53:58.105Z,15.57
2022-11-27T20:56:45.752Z,15.18
2022-11-27T20:59:31.600Z,17.75
2022-11-27T21:02:18.604Z,15.25
2022-11-27T21:05:05.266Z,16.58
2022-11-27T21:07:53.245Z,16.83
2022-11-27T21:10:39.289Z,15.35
2022-11-27T21:13:25.539Z,15.20
2022-11-27T21:16:13.916Z,15.15
2022-11-27T21:19:03.013Z,16.70
2022-11-27T21:21:50.657Z,18.20
2022-11-27T21:24:37.651Z,12.30
2022-11-27T21:27:24.393Z,21.48
2022-11-27T21:30:11.108Z,18.95
2022-11-27T21:32:57.482Z,25.75
2022-11-27T21:35:43.829Z,34.95
2022-11-27T21:38:30.586Z,39.08
2022-11-27T21:41:17.866Z,36.47
2022-11-27T21:44:05.262Z,26.65
2022-11-27T21:46:52.711Z,22.52
2022-11-27T21:49:39.831Z,22.60
2022-11-27T21:52:27.876Z,23.30
2022-11-27T21:55:13.919Z,21.48
2022-11-27T21:58:00.238Z,20.30
2022-11-27T22:00:46.515Z,17.67
2022-11-27T22:03:33.606Z,20.40
2022-11-27T22:06:20.619Z,15.80
2022-11-27T22:09:12.001Z,23.45
2022-11-27T22:12:05.707Z,15.38
2022-11-27T22:14:51.711Z,17.05
2022-11-27T22:17:38.688Z,23.83
2022-11-27T22:20:24.673Z,19.45
2022-11-27T22:23:12.106Z,22.17
2022-11-27T22:26:02.037Z,15.85
2022-11-27T22:28:48.639Z,16.95
2022-11-27T22:31:34.393Z,22.02
2022-11-27T22:34:23.166Z,15.68
2022-11-27T22:37:09.299Z,15.02
2022-11-27T22:39:55.059Z,17.55
2022-11-27T22:42:41.071Z,14.68
2022-11-27T22:45:27.379Z,15.48
2022-11-27T22:48:13.262Z,17.65
2022-11-27T22:50:59.795Z,21.20
2022-11-27T22:53:45.877Z,15.60
2022-11-27T22:56:36.024Z,18.85
2022-11-27T22:59:38.363Z,18.38
2022-11-27T23:02:24.745Z,23.15
2022-11-27T23:05:10.925Z,17.88
2022-11-27T23:07:57.052Z,19.13
2022-11-27T23:10:42.966Z,17.52
2022-11-27T23:13:28.741Z,17.60
2022-11-27T23:16:14.787Z,16.50
2022-11-27T23:19:00.468Z,22.65
2022-11-27T23:21:46.503Z,25.38
2022-11-27T23:24:32.609Z,26.23
2022-11-27T23:27:18.339Z,33.65
2022-11-27T23:30:04.902Z,28.05
2022-11-27T23:32:52.121Z,28.00
2022-11-27T23:35:37.944Z,26.27
2022-11-27T23:38:24.130Z,21.35
2022-11-27T23:41:10.893Z,19.00
2022-11-27T23:43:57.382Z,19.17
2022-11-27T23:46:43.259Z,19.55
2022-11-27T23:49:29.029Z,21.08
2022-11-27T23:52:17.224Z,21.10
2022-11-27T23:55:03.383Z,22.60
2022-11-27T23:57:49.505Z,26.17
